sensor_id;sensor_type;location;lat;lon;timestamp;temperature;humidity
50013;DHT22;35901;48.694;9.476;2023-10-08T00:02:26;8.50;99.90
50013;DHT22;35901;48.694;9.476;2023-10-08T00:04:53;8.60;99.90
50013;DHT22;35901;48.694;9.476;2023-10-08T00:07:20;8.60;99.90
50013;DHT22;35901;48.694;9.476;2023-10-08T00:09:49;8.70;99.90
50013;DHT22;35901;48.694;9.476;2023-10-08T00:12:17;8.80;99.90
50013;DHT22;35901;48.694;9.476;2023-10-08T00:14:43;8.90;99.90
50013;DHT22;35901;48.694;9.476;2023-10-08T00:17:28;8.90;99.90
50013;DHT22;35901;48.694;9.476;2023-10-08T00:19:54;8.80;99.90
50013;DHT22;35901;48.694;9.476;2023-10-08T00:22:20;8.80;99.90
50013;DHT22;35901;48.694;9.476;2023-10-08T00:24:45;8.80;99.90
50013;DHT22;35901;48.694;9.476;2023-10-08T00:27:12;8.80;99.90
50013;DHT22;35901;48.694;9.476;2023-10-08T00:29:40;8.80;99.90
50013;DHT22;35901;48.694;9.476;2023-10-08T00:32:09;8.80;99.90
50013;DHT22;35901;48.694;9.476;2023-10-08T00:34:43;8.80;99.90
50013;DHT22;35901;48.694;9.476;2023-10-08T00:37:10;8.80;99.90
50013;DHT22;35901;48.694;9.476;2023-10-08T00:39:37;8.80;99.90
50013;DHT22;35901;48.694;9.476;2023-10-08T00:42:05;8.80;99.90
50013;DHT22;35901;48.694;9.476;2023-10-08T00:44:33;8.80;99.90
50013;DHT22;35901;48.694;9.476;2023-10-08T00:47:04;8.90;99.90
50013;DHT22;35901;48.694;9.476;2023-10-08T00:49:30;8.90;99.90
50013;DHT22;35901;48.694;9.476;2023-10-08T00:52:12;8.80;99.90
50013;DHT22;35901;48.694;9.476;2023-10-08T00:54:40;8.80;99.90
50013;DHT22;35901;48.694;9.476;2023-10-08T00:57:17;8.90;99.90
50013;DHT22;35901;48.694;9.476;2023-10-08T00:59:47;8.90;99.90
50013;DHT22;35901;48.694;9.476;2023-10-08T01:02:26;8.90;99.90
50013;DHT22;35901;48.694;9.476;2023-10-08T01:05:08;8.90;99.90
50013;DHT22;35901;48.694;9.476;2023-10-08T01:07:35;8.90;99.90
50013;DHT22;35901;48.694;9.476;2023-10-08T01:10:01;8.80;99.90
50013;DHT22;35901;48.694;9.476;2023-10-08T01:12:35;8.80;99.90
50013;DHT22;35901;48.694;9.476;2023-10-08T01:15:10;8.80;99.90
50013;DHT22;35901;48.694;9.476;2023-10-08T01:17:57;8.80;99.90
50013;DHT22;35901;48.694;9.476;2023-10-08T01:20:31;8.80;99.90
50013;DHT22;35901;48.694;9.476;2023-10-08T01:23:07;8.80;99.90
50013;DHT22;35901;48.694;9.476;2023-10-08T01:25:43;8.80;99.90
50013;DHT22;35901;48.694;9.476;2023-10-08T01:28:09;8.90;99.90
50013;DHT22;35901;48.694;9.476;2023-10-08T01:30:44;8.90;99.90
50013;DHT22;35901;48.694;9.476;2023-10-08T01:33:12;9.00;99.90
50013;DHT22;35901;48.694;9.476;2023-10-08T01:35:40;9.00;99.90
50013;DHT22;35901;48.694;9.476;2023-10-08T01:38:06;9.10;99.90
50013;DHT22;35901;48.694;9.476;2023-10-08T01:40:32;9.20;99.90
50013;DHT22;35901;48.694;9.476;2023-10-08T01:42:58;9.30;99.90
50013;DHT22;35901;48.694;9.476;2023-10-08T01:45:29;9.30;99.90
50013;DHT22;35901;48.694;9.476;2023-10-08T01:47:56;9.30;99.90
50013;DHT22;35901;48.694;9.476;2023-10-08T01:50:27;9.30;99.90
50013;DHT22;35901;48.694;9.476;2023-10-08T01:52:56;9.20;99.90
50013;DHT22;35901;48.694;9.476;2023-10-08T01:55:22;9.20;99.90
50013;DHT22;35901;48.694;9.476;2023-10-08T01:57:50;9.20;99.90
50013;DHT22;35901;48.694;9.476;2023-10-08T02:00:19;9.10;99.90
50013;DHT22;35901;48.694;9.476;2023-10-08T02:02:47;9.00;99.90
50013;DHT22;35901;48.694;9.476;2023-10-08T02:05:12;9.00;99.90
50013;DHT22;35901;48.694;9.476;2023-10-08T02:07:41;9.10;99.90
50013;DHT22;35901;48.694;9.476;2023-10-08T02:10:08;9.10;99.90
50013;DHT22;35901;48.694;9.476;2023-10-08T02:12:38;9.10;99.90
50013;DHT22;35901;48.694;9.476;2023-10-08T02:15:04;9.00;99.90
50013;DHT22;35901;48.694;9.476;2023-10-08T02:17:32;8.90;99.90
50013;DHT22;35901;48.694;9.476;2023-10-08T02:19:58;8.80;99.90
50013;DHT22;35901;48.694;9.476;2023-10-08T02:22:24;8.70;99.90
50013;DHT22;35901;48.694;9.476;2023-10-08T02:24:49;8.70;99.90
50013;DHT22;35901;48.694;9.476;2023-10-08T02:27:16;8.70;99.90
50013;DHT22;35901;48.694;9.476;2023-10-08T02:29:42;8.70;99.90
50013;DHT22;35901;48.694;9.476;2023-10-08T02:32:08;8.60;99.90
50013;DHT22;35901;48.694;9.476;2023-10-08T02:34:33;8.50;99.90
50013;DHT22;35901;48.694;9.476;2023-10-08T02:37:01;8.40;99.90
50013;DHT22;35901;48.694;9.476;2023-10-08T02:39:29;8.30;99.90
50013;DHT22;35901;48.694;9.476;2023-10-08T02:41:56;8.20;99.90
50013;DHT22;35901;48.694;9.476;2023-10-08T02:44:25;8.20;99.90
50013;DHT22;35901;48.694;9.476;2023-10-08T02:46:51;8.20;99.90
50013;DHT22;35901;48.694;9.476;2023-10-08T02:49:19;8.30;99.90
50013;DHT22;35901;48.694;9.476;2023-10-08T02:51:52;8.40;99.90
50013;DHT22;35901;48.694;9.476;2023-10-08T02:54:20;8.40;99.90
50013;DHT22;35901;48.694;9.476;2023-10-08T02:56:53;8.40;99.90
50013;DHT22;35901;48.694;9.476;2023-10-08T02:59:28;8.30;99.90
50013;DHT22;35901;48.694;9.476;2023-10-08T03:01:53;8.30;99.90
50013;DHT22;35901;48.694;9.476;2023-10-08T03:04:22;8.20;99.90
50013;DHT22;35901;48.694;9.476;2023-10-08T03:06:49;8.10;99.90
50013;DHT22;35901;48.694;9.476;2023-10-08T03:09:17;8.10;99.90
50013;DHT22;35901;48.694;9.476;2023-10-08T03:11:48;8.10;99.90
50013;DHT22;35901;48.694;9.476;2023-10-08T03:14:16;8.10;99.90
50013;DHT22;35901;48.694;9.476;2023-10-08T03:16:48;8.10;99.90
50013;DHT22;35901;48.694;9.476;2023-10-08T03:19:15;8.10;99.90
50013;DHT22;35901;48.694;9.476;2023-10-08T03:21:40;8.00;99.90
50013;DHT22;35901;48.694;9.476;2023-10-08T03:24:06;8.00;99.90
50013;DHT22;35901;48.694;9.476;2023-10-08T03:26:49;8.00;99.90
50013;DHT22;35901;48.694;9.476;2023-10-08T03:29:21;8.00;99.90
50013;DHT22;35901;48.694;9.476;2023-10-08T03:31:47;8.00;99.90
50013;DHT22;35901;48.694;9.476;2023-10-08T03:34:18;8.00;99.90
50013;DHT22;35901;48.694;9.476;2023-10-08T03:36:45;8.00;99.90
50013;DHT22;35901;48.694;9.476;2023-10-08T03:39:12;8.00;99.90
50013;DHT22;35901;48.694;9.476;2023-10-08T03:41:41;8.20;99.90
50013;DHT22;35901;48.694;9.476;2023-10-08T03:44:07;8.30;99.90
50013;DHT22;35901;48.694;9.476;2023-10-08T03:46:39;8.20;99.90
50013;DHT22;35901;48.694;9.476;2023-10-08T03:49:10;8.10;99.90
50013;DHT22;35901;48.694;9.476;2023-10-08T03:51:48;8.00;99.90
50013;DHT22;35901;48.694;9.476;2023-10-08T03:54:17;7.90;99.90
50013;DHT22;35901;48.694;9.476;2023-10-08T03:56:45;7.80;99.90
50013;DHT22;35901;48.694;9.476;2023-10-08T03:59:12;7.70;99.90
50013;DHT22;35901;48.694;9.476;2023-10-08T04:01:42;7.60;99.90
50013;DHT22;35901;48.694;9.476;2023-10-08T04:04:08;7.50;99.90
50013;DHT22;35901;48.694;9.476;2023-10-08T04:06:41;7.40;99.90
50013;DHT22;35901;48.694;9.476;2023-10-08T04:09:15;7.30;99.90
50013;DHT22;35901;48.694;9.476;2023-10-08T04:11:44;7.30;99.90
50013;DHT22;35901;48.694;9.476;2023-10-08T04:14:24;7.30;99.90
50013;DHT22;35901;48.694;9.476;2023-10-08T04:16:50;7.20;99.90
50013;DHT22;35901;48.694;9.476;2023-10-08T04:19:20;7.20;99.90
50013;DHT22;35901;48.694;9.476;2023-10-08T04:21:47;7.20;99.90
50013;DHT22;35901;48.694;9.476;2023-10-08T04:24:26;7.20;99.90
50013;DHT22;35901;48.694;9.476;2023-10-08T04:27:10;7.20;99.90
50013;DHT22;35901;48.694;9.476;2023-10-08T04:29:35;7.20;99.90
50013;DHT22;35901;48.694;9.476;2023-10-08T04:32:05;7.20;99.90
50013;DHT22;35901;48.694;9.476;2023-10-08T04:34:36;7.30;99.90
50013;DHT22;35901;48.694;9.476;2023-10-08T04:37:02;7.40;99.90
50013;DHT22;35901;48.694;9.476;2023-10-08T04:39:29;7.50;99.90
50013;DHT22;35901;48.694;9.476;2023-10-08T04:42:01;7.60;99.90
50013;DHT22;35901;48.694;9.476;2023-10-08T04:44:35;7.60;99.90
50013;DHT22;35901;48.694;9.476;2023-10-08T04:47:04;7.40;99.90
50013;DHT22;35901;48.694;9.476;2023-10-08T04:49:52;7.30;99.90
50013;DHT22;35901;48.694;9.476;2023-10-08T04:52:18;7.30;99.90
50013;DHT22;35901;48.694;9.476;2023-10-08T04:54:44;7.20;99.90
50013;DHT22;35901;48.694;9.476;2023-10-08T04:57:20;7.10;99.90
50013;DHT22;35901;48.694;9.476;2023-10-08T04:59:51;7.10;99.90
50013;DHT22;35901;48.694;9.476;2023-10-08T05:02:17;7.10;99.90
50013;DHT22;35901;48.694;9.476;2023-10-08T05:04:55;7.10;99.90
50013;DHT22;35901;48.694;9.476;2023-10-08T05:07:35;7.10;99.90
50013;DHT22;35901;48.694;9.476;2023-10-08T05:10:11;7.10;99.90
50013;DHT22;35901;48.694;9.476;2023-10-08T05:12:50;7.10;99.90
50013;DHT22;35901;48.694;9.476;2023-10-08T05:15:38;7.10;99.90
50013;DHT22;35901;48.694;9.476;2023-10-08T05:18:07;7.00;99.90
50013;DHT22;35901;48.694;9.476;2023-10-08T05:20:49;7.10;99.90
50013;DHT22;35901;48.694;9.476;2023-10-08T05:23:16;7.00;99.90
50013;DHT22;35901;48.694;9.476;2023-10-08T05:25:55;7.00;99.90
50013;DHT22;35901;48.694;9.476;2023-10-08T05:28:38;7.00;99.90
50013;DHT22;35901;48.694;9.476;2023-10-08T05:31:23;6.90;99.90
50013;DHT22;35901;48.694;9.476;2023-10-08T05:34:15;6.90;99.90
50013;DHT22;35901;48.694;9.476;2023-10-08T05:36:58;6.80;99.90
50013;DHT22;35901;48.694;9.476;2023-10-08T05:39:29;6.80;99.90
50013;DHT22;35901;48.694;9.476;2023-10-08T05:42:06;6.80;99.90
50013;DHT22;35901;48.694;9.476;2023-10-08T05:45:01;6.80;99.90
50013;DHT22;35901;48.694;9.476;2023-10-08T05:47:36;6.80;99.90
50013;DHT22;35901;48.694;9.476;2023-10-08T05:50:03;6.80;99.90
50013;DHT22;35901;48.694;9.476;2023-10-08T05:52:44;6.80;99.90
50013;DHT22;35901;48.694;9.476;2023-10-08T05:55:31;6.90;99.90
50013;DHT22;35901;48.694;9.476;2023-10-08T05:58:13;6.90;99.90
50013;DHT22;35901;48.694;9.476;2023-10-08T06:00:46;7.10;99.90
50013;DHT22;35901;48.694;9.476;2023-10-08T06:03:30;7.30;99.90
50013;DHT22;35901;48.694;9.476;2023-10-08T06:06:25;7.50;99.90
50013;DHT22;35901;48.694;9.476;2023-10-08T06:09:03;7.80;99.90
50013;DHT22;35901;48.694;9.476;2023-10-08T06:11:48;7.90;99.90
50013;DHT22;35901;48.694;9.476;2023-10-08T06:14:35;8.00;99.90
50013;DHT22;35901;48.694;9.476;2023-10-08T06:17:33;8.40;99.90
50013;DHT22;35901;48.694;9.476;2023-10-08T06:20:17;8.80;99.90
50013;DHT22;35901;48.694;9.476;2023-10-08T06:22:51;9.20;99.90
50013;DHT22;35901;48.694;9.476;2023-10-08T06:25:19;9.40;99.90
50013;DHT22;35901;48.694;9.476;2023-10-08T06:27:51;9.30;99.90
50013;DHT22;35901;48.694;9.476;2023-10-08T06:30:22;9.20;99.90
50013;DHT22;35901;48.694;9.476;2023-10-08T06:32:50;9.10;99.90
50013;DHT22;35901;48.694;9.476;2023-10-08T06:35:16;9.10;99.90
50013;DHT22;35901;48.694;9.476;2023-10-08T06:37:45;9.10;99.90
50013;DHT22;35901;48.694;9.476;2023-10-08T06:40:14;9.30;99.90
50013;DHT22;35901;48.694;9.476;2023-10-08T06:43:00;9.70;99.90
50013;DHT22;35901;48.694;9.476;2023-10-08T06:45:41;10.10;99.90
50013;DHT22;35901;48.694;9.476;2023-10-08T06:48:08;10.30;99.90
50013;DHT22;35901;48.694;9.476;2023-10-08T06:50:34;10.30;99.90
50013;DHT22;35901;48.694;9.476;2023-10-08T06:53:04;10.40;99.90
50013;DHT22;35901;48.694;9.476;2023-10-08T06:55:34;10.50;99.90
50013;DHT22;35901;48.694;9.476;2023-10-08T06:58:27;10.70;99.90
50013;DHT22;35901;48.694;9.476;2023-10-08T07:00:53;10.90;99.90
50013;DHT22;35901;48.694;9.476;2023-10-08T07:03:20;11.00;99.90
50013;DHT22;35901;48.694;9.476;2023-10-08T07:05:48;11.00;99.90
50013;DHT22;35901;48.694;9.476;2023-10-08T07:08:33;11.00;99.90
50013;DHT22;35901;48.694;9.476;2023-10-08T07:11:03;11.10;99.90
50013;DHT22;35901;48.694;9.476;2023-10-08T07:13:37;11.10;99.90
50013;DHT22;35901;48.694;9.476;2023-10-08T07:16:05;11.10;99.90
50013;DHT22;35901;48.694;9.476;2023-10-08T07:18:33;11.00;99.90
50013;DHT22;35901;48.694;9.476;2023-10-08T07:20:59;10.90;99.90
50013;DHT22;35901;48.694;9.476;2023-10-08T07:23:38;10.90;99.90
50013;DHT22;35901;48.694;9.476;2023-10-08T07:26:25;11.20;99.90
50013;DHT22;35901;48.694;9.476;2023-10-08T07:28:57;11.90;99.90
50013;DHT22;35901;48.694;9.476;2023-10-08T07:31:24;12.30;99.90
50013;DHT22;35901;48.694;9.476;2023-10-08T07:33:51;12.40;99.90
50013;DHT22;35901;48.694;9.476;2023-10-08T07:36:24;12.40;99.90
50013;DHT22;35901;48.694;9.476;2023-10-08T07:38:51;12.30;99.90
50013;DHT22;35901;48.694;9.476;2023-10-08T07:41:16;12.20;99.90
50013;DHT22;35901;48.694;9.476;2023-10-08T07:43:45;12.10;99.90
50013;DHT22;35901;48.694;9.476;2023-10-08T07:46:24;12.10;99.90
50013;DHT22;35901;48.694;9.476;2023-10-08T07:48:56;12.10;99.90
50013;DHT22;35901;48.694;9.476;2023-10-08T07:51:25;12.10;99.90
50013;DHT22;35901;48.694;9.476;2023-10-08T07:53:51;12.10;99.90
50013;DHT22;35901;48.694;9.476;2023-10-08T07:56:25;12.00;99.90
50013;DHT22;35901;48.694;9.476;2023-10-08T07:58:51;12.00;99.90
50013;DHT22;35901;48.694;9.476;2023-10-08T08:01:17;12.00;99.90
50013;DHT22;35901;48.694;9.476;2023-10-08T08:03:46;12.10;99.90
50013;DHT22;35901;48.694;9.476;2023-10-08T08:06:14;12.20;99.90
50013;DHT22;35901;48.694;9.476;2023-10-08T08:08:41;12.40;99.90
50013;DHT22;35901;48.694;9.476;2023-10-08T08:11:08;12.80;99.90
50013;DHT22;35901;48.694;9.476;2023-10-08T08:13:40;13.10;99.90
50013;DHT22;35901;48.694;9.476;2023-10-08T08:16:11;13.30;99.90
50013;DHT22;35901;48.694;9.476;2023-10-08T08:18:48;13.50;99.90
50013;DHT22;35901;48.694;9.476;2023-10-08T08:21:25;13.50;99.90
50013;DHT22;35901;48.694;9.476;2023-10-08T08:23:51;13.70;99.90
50013;DHT22;35901;48.694;9.476;2023-10-08T08:26:22;13.80;99.90
50013;DHT22;35901;48.694;9.476;2023-10-08T08:29:15;14.00;99.90
50013;DHT22;35901;48.694;9.476;2023-10-08T08:31:41;14.20;99.90
50013;DHT22;35901;48.694;9.476;2023-10-08T08:34:11;14.90;99.90
50013;DHT22;35901;48.694;9.476;2023-10-08T08:36:43;15.80;99.90
50013;DHT22;35901;48.694;9.476;2023-10-08T08:39:13;16.40;99.90
50013;DHT22;35901;48.694;9.476;2023-10-08T08:41:58;17.00;99.90
50013;DHT22;35901;48.694;9.476;2023-10-08T08:44:28;17.70;99.90
50013;DHT22;35901;48.694;9.476;2023-10-08T08:46:58;18.40;99.90
50013;DHT22;35901;48.694;9.476;2023-10-08T08:49:25;18.80;99.90
50013;DHT22;35901;48.694;9.476;2023-10-08T08:51:52;18.90;99.90
50013;DHT22;35901;48.694;9.476;2023-10-08T08:54:21;19.00;99.90
50013;DHT22;35901;48.694;9.476;2023-10-08T08:56:47;19.20;99.90
50013;DHT22;35901;48.694;9.476;2023-10-08T08:59:14;19.50;99.90
50013;DHT22;35901;48.694;9.476;2023-10-08T09:01:43;19.70;99.90
50013;DHT22;35901;48.694;9.476;2023-10-08T09:04:10;20.00;99.90
50013;DHT22;35901;48.694;9.476;2023-10-08T09:06:37;20.00;99.90
50013;DHT22;35901;48.694;9.476;2023-10-08T09:09:06;20.20;99.90
50013;DHT22;35901;48.694;9.476;2023-10-08T09:11:59;20.40;99.90
50013;DHT22;35901;48.694;9.476;2023-10-08T09:14:26;20.60;99.90
50013;DHT22;35901;48.694;9.476;2023-10-08T09:17:00;21.00;99.90
50013;DHT22;35901;48.694;9.476;2023-10-08T09:19:26;21.30;99.90
50013;DHT22;35901;48.694;9.476;2023-10-08T09:22:06;21.70;99.90
50013;DHT22;35901;48.694;9.476;2023-10-08T09:24:33;22.00;99.60
50013;DHT22;35901;48.694;9.476;2023-10-08T09:27:03;22.30;97.00
50013;DHT22;35901;48.694;9.476;2023-10-08T09:29:29;22.60;96.90
50013;DHT22;35901;48.694;9.476;2023-10-08T09:35:43;23.30;94.40
50013;DHT22;35901;48.694;9.476;2023-10-08T09:38:11;23.70;93.40
50013;DHT22;35901;48.694;9.476;2023-10-08T09:40:38;24.10;93.30
50013;DHT22;35901;48.694;9.476;2023-10-08T09:43:04;24.30;91.80
50013;DHT22;35901;48.694;9.476;2023-10-08T09:45:30;24.10;91.40
50013;DHT22;35901;48.694;9.476;2023-10-08T09:47:56;24.10;91.00
50013;DHT22;35901;48.694;9.476;2023-10-08T09:50:34;24.30;89.30
50013;DHT22;35901;48.694;9.476;2023-10-08T09:53:10;24.40;86.70
50013;DHT22;35901;48.694;9.476;2023-10-08T09:55:54;24.50;84.50
50013;DHT22;35901;48.694;9.476;2023-10-08T09:58:25;24.50;84.50
50013;DHT22;35901;48.694;9.476;2023-10-08T10:00:54;24.60;83.70
50013;DHT22;35901;48.694;9.476;2023-10-08T10:03:20;24.40;82.40
50013;DHT22;35901;48.694;9.476;2023-10-08T10:05:50;24.10;82.40
50013;DHT22;35901;48.694;9.476;2023-10-08T10:08:17;23.70;83.20
50013;DHT22;35901;48.694;9.476;2023-10-08T10:10:43;23.30;84.10
50013;DHT22;35901;48.694;9.476;2023-10-08T10:13:16;23.10;84.50
50013;DHT22;35901;48.694;9.476;2023-10-08T10:15:43;23.00;84.40
50013;DHT22;35901;48.694;9.476;2023-10-08T10:23:46;23.10;84.70
50013;DHT22;35901;48.694;9.476;2023-10-08T10:26:27;23.10;84.70
50013;DHT22;35901;48.694;9.476;2023-10-08T10:31:43;23.10;84.80
50013;DHT22;35901;48.694;9.476;2023-10-08T10:34:17;23.10;84.10
50013;DHT22;35901;48.694;9.476;2023-10-08T10:36:45;23.10;84.20
50013;DHT22;35901;48.694;9.476;2023-10-08T10:39:18;23.10;84.10
50013;DHT22;35901;48.694;9.476;2023-10-08T10:41:59;23.00;84.40
50013;DHT22;35901;48.694;9.476;2023-10-08T10:44:33;23.00;84.60
50013;DHT22;35901;48.694;9.476;2023-10-08T10:47:02;23.00;85.30
50013;DHT22;35901;48.694;9.476;2023-10-08T10:49:41;22.90;85.50
50013;DHT22;35901;48.694;9.476;2023-10-08T10:52:27;22.80;85.80
50013;DHT22;35901;48.694;9.476;2023-10-08T10:55:14;22.60;85.30
50013;DHT22;35901;48.694;9.476;2023-10-08T10:57:40;22.50;86.20
50013;DHT22;35901;48.694;9.476;2023-10-08T11:00:08;22.50;86.40
50013;DHT22;35901;48.694;9.476;2023-10-08T11:02:53;22.60;85.80
50013;DHT22;35901;48.694;9.476;2023-10-08T11:05:26;22.60;85.60
50013;DHT22;35901;48.694;9.476;2023-10-08T11:07:57;22.60;85.50
50013;DHT22;35901;48.694;9.476;2023-10-08T11:10:38;22.60;84.40
50013;DHT22;35901;48.694;9.476;2023-10-08T11:13:05;22.50;85.30
50013;DHT22;35901;48.694;9.476;2023-10-08T11:15:40;22.50;85.20
50013;DHT22;35901;48.694;9.476;2023-10-08T11:18:10;22.50;85.80
50013;DHT22;35901;48.694;9.476;2023-10-08T11:20:36;22.60;86.20
50013;DHT22;35901;48.694;9.476;2023-10-08T11:23:08;22.80;86.50
50013;DHT22;35901;48.694;9.476;2023-10-08T11:25:56;23.00;86.20
50013;DHT22;35901;48.694;9.476;2023-10-08T11:28:37;23.00;85.20
50013;DHT22;35901;48.694;9.476;2023-10-08T11:31:15;23.00;85.80
50013;DHT22;35901;48.694;9.476;2023-10-08T11:33:45;23.10;86.20
50013;DHT22;35901;48.694;9.476;2023-10-08T11:36:21;23.20;85.80
50013;DHT22;35901;48.694;9.476;2023-10-08T11:38:54;23.40;85.20
50013;DHT22;35901;48.694;9.476;2023-10-08T11:41:26;23.40;84.50
50013;DHT22;35901;48.694;9.476;2023-10-08T11:43:54;23.40;84.00
50013;DHT22;35901;48.694;9.476;2023-10-08T11:46:27;23.30;84.10
50013;DHT22;35901;48.694;9.476;2023-10-08T11:48:56;23.30;83.60
50013;DHT22;35901;48.694;9.476;2023-10-08T11:51:34;23.20;83.30
50013;DHT22;35901;48.694;9.476;2023-10-08T11:54:01;23.30;83.90
50013;DHT22;35901;48.694;9.476;2023-10-08T11:56:29;23.40;83.70
50013;DHT22;35901;48.694;9.476;2023-10-08T11:58:55;23.40;83.80
50013;DHT22;35901;48.694;9.476;2023-10-08T12:01:26;23.50;83.70
50013;DHT22;35901;48.694;9.476;2023-10-08T12:03:53;23.60;83.30
50013;DHT22;35901;48.694;9.476;2023-10-08T12:06:25;23.70;83.20
50013;DHT22;35901;48.694;9.476;2023-10-08T12:08:55;24.00;82.80
50013;DHT22;35901;48.694;9.476;2023-10-08T12:11:24;24.00;82.50
50013;DHT22;35901;48.694;9.476;2023-10-08T12:13:57;24.20;82.50
50013;DHT22;35901;48.694;9.476;2023-10-08T12:16:25;24.50;81.30
50013;DHT22;35901;48.694;9.476;2023-10-08T12:18:55;24.70;81.00
50013;DHT22;35901;48.694;9.476;2023-10-08T12:21:30;24.70;80.70
50013;DHT22;35901;48.694;9.476;2023-10-08T12:24:00;24.60;79.80
50013;DHT22;35901;48.694;9.476;2023-10-08T12:26:30;24.40;79.50
50013;DHT22;35901;48.694;9.476;2023-10-08T12:28:58;24.20;79.40
50013;DHT22;35901;48.694;9.476;2023-10-08T12:31:32;24.10;79.50
50013;DHT22;35901;48.694;9.476;2023-10-08T12:33:59;24.00;79.60
50013;DHT22;35901;48.694;9.476;2023-10-08T12:36:28;24.10;80.20
50013;DHT22;35901;48.694;9.476;2023-10-08T12:38:58;24.20;80.60
50013;DHT22;35901;48.694;9.476;2023-10-08T12:41:25;24.30;80.60
50013;DHT22;35901;48.694;9.476;2023-10-08T12:43:52;24.40;80.30
50013;DHT22;35901;48.694;9.476;2023-10-08T12:46:19;24.30;79.90
50013;DHT22;35901;48.694;9.476;2023-10-08T12:48:50;24.20;80.20
50013;DHT22;35901;48.694;9.476;2023-10-08T12:51:22;24.20;79.60
50013;DHT22;35901;48.694;9.476;2023-10-08T12:53:52;24.30;80.20
50013;DHT22;35901;48.694;9.476;2023-10-08T12:56:25;24.40;80.10
50013;DHT22;35901;48.694;9.476;2023-10-08T12:58:58;24.60;79.70
50013;DHT22;35901;48.694;9.476;2023-10-08T13:01:24;24.80;79.90
50013;DHT22;35901;48.694;9.476;2023-10-08T13:03:54;24.90;80.30
50013;DHT22;35901;48.694;9.476;2023-10-08T13:06:26;25.20;80.70
50013;DHT22;35901;48.694;9.476;2023-10-08T13:08:58;25.40;80.20
50013;DHT22;35901;48.694;9.476;2023-10-08T13:11:26;25.50;79.30
50013;DHT22;35901;48.694;9.476;2023-10-08T13:13:56;25.60;78.60
50013;DHT22;35901;48.694;9.476;2023-10-08T13:16:27;25.60;78.40
50013;DHT22;35901;48.694;9.476;2023-10-08T13:19:03;25.50;78.50
50013;DHT22;35901;48.694;9.476;2023-10-08T13:21:29;25.60;78.50
50013;DHT22;35901;48.694;9.476;2023-10-08T13:23:55;25.60;78.10
50013;DHT22;35901;48.694;9.476;2023-10-08T13:26:29;25.60;78.30
50013;DHT22;35901;48.694;9.476;2023-10-08T13:28:59;25.60;77.30
50013;DHT22;35901;48.694;9.476;2023-10-08T13:31:27;25.60;77.80
50013;DHT22;35901;48.694;9.476;2023-10-08T13:33:53;25.60;76.30
50013;DHT22;35901;48.694;9.476;2023-10-08T13:36:22;25.50;76.40
50013;DHT22;35901;48.694;9.476;2023-10-08T13:38:49;25.50;77.00
50013;DHT22;35901;48.694;9.476;2023-10-08T13:41:15;25.50;76.40
50013;DHT22;35901;48.694;9.476;2023-10-08T13:43:46;25.40;76.70
50013;DHT22;35901;48.694;9.476;2023-10-08T13:46:14;25.50;77.80
50013;DHT22;35901;48.694;9.476;2023-10-08T13:48:41;25.50;77.10
50013;DHT22;35901;48.694;9.476;2023-10-08T13:51:07;25.60;76.90
50013;DHT22;35901;48.694;9.476;2023-10-08T13:53:47;25.60;76.50
50013;DHT22;35901;48.694;9.476;2023-10-08T13:56:18;25.60;76.20
50013;DHT22;35901;48.694;9.476;2023-10-08T13:58:46;25.60;75.60
50013;DHT22;35901;48.694;9.476;2023-10-08T14:01:15;25.60;75.90
50013;DHT22;35901;48.694;9.476;2023-10-08T14:03:47;25.70;75.40
50013;DHT22;35901;48.694;9.476;2023-10-08T14:06:17;25.60;75.50
50013;DHT22;35901;48.694;9.476;2023-10-08T14:08:43;25.70;75.70
50013;DHT22;35901;48.694;9.476;2023-10-08T14:11:21;25.70;75.10
50013;DHT22;35901;48.694;9.476;2023-10-08T14:13:53;25.80;75.30
50013;DHT22;35901;48.694;9.476;2023-10-08T14:16:19;25.70;75.50
50013;DHT22;35901;48.694;9.476;2023-10-08T14:18:50;25.80;75.30
50013;DHT22;35901;48.694;9.476;2023-10-08T14:21:22;25.80;75.40
50013;DHT22;35901;48.694;9.476;2023-10-08T14:23:58;25.60;75.60
50013;DHT22;35901;48.694;9.476;2023-10-08T14:26:32;25.50;76.60
50013;DHT22;35901;48.694;9.476;2023-10-08T14:29:02;25.50;77.00
50013;DHT22;35901;48.694;9.476;2023-10-08T14:31:40;25.30;76.80
50013;DHT22;35901;48.694;9.476;2023-10-08T14:34:07;25.30;77.30
50013;DHT22;35901;48.694;9.476;2023-10-08T14:36:51;25.40;77.20
50013;DHT22;35901;48.694;9.476;2023-10-08T14:39:35;25.30;76.70
50013;DHT22;35901;48.694;9.476;2023-10-08T14:42:19;25.40;76.90
50013;DHT22;35901;48.694;9.476;2023-10-08T14:45:04;25.40;77.10
50013;DHT22;35901;48.694;9.476;2023-10-08T14:47:40;25.40;76.20
50013;DHT22;35901;48.694;9.476;2023-10-08T14:50:07;25.10;76.50
50013;DHT22;35901;48.694;9.476;2023-10-08T14:52:42;25.10;76.60
50013;DHT22;35901;48.694;9.476;2023-10-08T14:55:08;24.90;76.60
50013;DHT22;35901;48.694;9.476;2023-10-08T14:57:34;24.90;77.30
50013;DHT22;35901;48.694;9.476;2023-10-08T14:59:59;24.90;77.60
50013;DHT22;35901;48.694;9.476;2023-10-08T15:02:25;25.00;77.20
50013;DHT22;35901;48.694;9.476;2023-10-08T15:04:54;25.00;77.60
50013;DHT22;35901;48.694;9.476;2023-10-08T15:07:22;25.00;78.10
50013;DHT22;35901;48.694;9.476;2023-10-08T15:09:48;24.90;79.60
50013;DHT22;35901;48.694;9.476;2023-10-08T15:12:15;24.70;80.10
50013;DHT22;35901;48.694;9.476;2023-10-08T15:14:42;24.50;80.70
50013;DHT22;35901;48.694;9.476;2023-10-08T15:17:08;24.40;81.10
50013;DHT22;35901;48.694;9.476;2023-10-08T15:19:35;24.40;81.80
50013;DHT22;35901;48.694;9.476;2023-10-08T15:22:01;24.40;82.70
50013;DHT22;35901;48.694;9.476;2023-10-08T15:24:28;24.30;83.10
50013;DHT22;35901;48.694;9.476;2023-10-08T15:26:55;24.10;83.70
50013;DHT22;35901;48.694;9.476;2023-10-08T15:29:21;24.00;83.90
50013;DHT22;35901;48.694;9.476;2023-10-08T15:31:48;23.90;83.60
50013;DHT22;35901;48.694;9.476;2023-10-08T15:34:14;23.70;83.80
50013;DHT22;35901;48.694;9.476;2023-10-08T15:36:40;23.60;84.00
50013;DHT22;35901;48.694;9.476;2023-10-08T15:39:06;23.50;84.30
50013;DHT22;35901;48.694;9.476;2023-10-08T15:41:38;23.40;84.50
50013;DHT22;35901;48.694;9.476;2023-10-08T15:44:04;23.20;84.10
50013;DHT22;35901;48.694;9.476;2023-10-08T15:46:34;23.10;83.70
50013;DHT22;35901;48.694;9.476;2023-10-08T15:49:03;23.00;83.80
50013;DHT22;35901;48.694;9.476;2023-10-08T15:51:32;22.80;83.90
50013;DHT22;35901;48.694;9.476;2023-10-08T15:53:58;22.60;84.10
50013;DHT22;35901;48.694;9.476;2023-10-08T15:56:25;22.40;84.30
50013;DHT22;35901;48.694;9.476;2023-10-08T15:58:55;22.10;84.90
50013;DHT22;35901;48.694;9.476;2023-10-08T16:01:22;21.90;85.30
50013;DHT22;35901;48.694;9.476;2023-10-08T16:03:47;21.70;86.10
50013;DHT22;35901;48.694;9.476;2023-10-08T16:06:13;21.60;86.50
50013;DHT22;35901;48.694;9.476;2023-10-08T16:08:39;21.50;86.60
50013;DHT22;35901;48.694;9.476;2023-10-08T16:11:05;21.40;87.60
50013;DHT22;35901;48.694;9.476;2023-10-08T16:13:30;21.40;88.10
50013;DHT22;35901;48.694;9.476;2023-10-08T16:15:56;21.30;88.80